sensor_id;sensor_type;location;lat;lon;timestamp;P1;durP1;ratioP1;P2;durP2;ratioP2
54589;SDS011;40485;53.172;5.416;2022-07-29T00:02:24;1.58;;;0.50;;
54589;SDS011;40485;53.172;5.416;2022-07-29T00:04:51;1.70;;;0.70;;
54589;SDS011;40485;53.172;5.416;2022-07-29T00:07:16;1.58;;;0.43;;
54589;SDS011;40485;53.172;5.416;2022-07-29T00:09:42;1.48;;;0.60;;
54589;SDS011;40485;53.172;5.416;2022-07-29T00:12:07;1.63;;;0.60;;
54589;SDS011;40485;53.172;5.416;2022-07-29T00:14:34;3.47;;;0.82;;
54589;SDS011;40485;53.172;5.416;2022-07-29T00:16:59;1.75;;;0.55;;
54589;SDS011;40485;53.172;5.416;2022-07-29T00:19:25;0.82;;;0.47;;
54589;SDS011;40485;53.172;5.416;2022-07-29T00:21:51;0.95;;;0.52;;
54589;SDS011;40485;53.172;5.416;2022-07-29T00:24:16;2.15;;;0.60;;
54589;SDS011;40485;53.172;5.416;2022-07-29T00:26:42;3.67;;;0.60;;
54589;SDS011;40485;53.172;5.416;2022-07-29T00:29:08;1.33;;;0.65;;
54589;SDS011;40485;53.172;5.416;2022-07-29T00:31:33;2.47;;;0.60;;
54589;SDS011;40485;53.172;5.416;2022-07-29T00:33:59;1.55;;;0.52;;
54589;SDS011;40485;53.172;5.416;2022-07-29T00:36:24;5.07;;;0.82;;
54589;SDS011;40485;53.172;5.416;2022-07-29T00:38:50;1.05;;;0.50;;
54589;SDS011;40485;53.172;5.416;2022-07-29T00:41:17;2.28;;;0.75;;
54589;SDS011;40485;53.172;5.416;2022-07-29T00:43:43;0.98;;;0.50;;
54589;SDS011;40485;53.172;5.416;2022-07-29T00:46:09;0.88;;;0.40;;
54589;SDS011;40485;53.172;5.416;2022-07-29T00:48:35;0.98;;;0.70;;
54589;SDS011;40485;53.172;5.416;2022-07-29T00:51:02;1.92;;;0.47;;
54589;SDS011;40485;53.172;5.416;2022-07-29T00:53:29;0.90;;;0.57;;
54589;SDS011;40485;53.172;5.416;2022-07-29T00:55:55;5.22;;;0.60;;
54589;SDS011;40485;53.172;5.416;2022-07-29T00:58:21;1.30;;;0.50;;
54589;SDS011;40485;53.172;5.416;2022-07-29T01:00:48;1.92;;;0.63;;
54589;SDS011;40485;53.172;5.416;2022-07-29T01:03:13;0.90;;;0.40;;
54589;SDS011;40485;53.172;5.416;2022-07-29T01:05:39;3.10;;;0.60;;
54589;SDS011;40485;53.172;5.416;2022-07-29T01:08:07;3.15;;;0.65;;
54589;SDS011;40485;53.172;5.416;2022-07-29T01:10:33;0.68;;;0.30;;
54589;SDS011;40485;53.172;5.416;2022-07-29T01:13:03;1.63;;;0.60;;
54589;SDS011;40485;53.172;5.416;2022-07-29T01:15:29;1.30;;;0.50;;
54589;SDS011;40485;53.172;5.416;2022-07-29T01:17:59;1.38;;;0.73;;
54589;SDS011;40485;53.172;5.416;2022-07-29T01:32:03;1.30;;;0.50;;
54589;SDS011;40485;53.172;5.416;2022-07-29T01:34:46;2.27;;;0.73;;
54589;SDS011;40485;53.172;5.416;2022-07-29T01:37:27;2.00;;;0.70;;
54589;SDS011;40485;53.172;5.416;2022-07-29T01:39:58;2.03;;;0.60;;
54589;SDS011;40485;53.172;5.416;2022-07-29T01:42:42;3.38;;;0.60;;
54589;SDS011;40485;53.172;5.416;2022-07-29T01:47:46;1.08;;;0.52;;
54589;SDS011;40485;53.172;5.416;2022-07-29T01:50:22;1.98;;;0.68;;
54589;SDS011;40485;53.172;5.416;2022-07-29T01:52:54;1.35;;;0.70;;
54589;SDS011;40485;53.172;5.416;2022-07-29T01:55:24;3.17;;;0.82;;
54589;SDS011;40485;53.172;5.416;2022-07-29T01:57:53;2.50;;;0.50;;
54589;SDS011;40485;53.172;5.416;2022-07-29T02:00:22;1.35;;;0.47;;
54589;SDS011;40485;53.172;5.416;2022-07-29T02:02:48;2.83;;;0.90;;
54589;SDS011;40485;53.172;5.416;2022-07-29T02:05:17;3.35;;;0.80;;
54589;SDS011;40485;53.172;5.416;2022-07-29T02:07:46;2.05;;;0.40;;
54589;SDS011;40485;53.172;5.416;2022-07-29T02:10:13;3.67;;;0.70;;
54589;SDS011;40485;53.172;5.416;2022-07-29T02:12:40;1.73;;;0.60;;
54589;SDS011;40485;53.172;5.416;2022-07-29T02:15:08;1.08;;;0.60;;
54589;SDS011;40485;53.172;5.416;2022-07-29T02:17:41;2.15;;;0.50;;
54589;SDS011;40485;53.172;5.416;2022-07-29T02:20:08;2.85;;;0.70;;
54589;SDS011;40485;53.172;5.416;2022-07-29T02:22:35;3.15;;;0.80;;
54589;SDS011;40485;53.172;5.416;2022-07-29T02:25:03;1.52;;;0.70;;
54589;SDS011;40485;53.172;5.416;2022-07-29T02:27:30;2.40;;;1.15;;
54589;SDS011;40485;53.172;5.416;2022-07-29T02:29:59;1.85;;;0.43;;
54589;SDS011;40485;53.172;5.416;2022-07-29T02:32:26;1.52;;;0.60;;
54589;SDS011;40485;53.172;5.416;2022-07-29T02:34:53;1.95;;;0.82;;
54589;SDS011;40485;53.172;5.416;2022-07-29T02:37:20;3.00;;;0.70;;
54589;SDS011;40485;53.172;5.416;2022-07-29T02:39:46;1.45;;;0.82;;
54589;SDS011;40485;53.172;5.416;2022-07-29T02:42:15;1.55;;;0.80;;
54589;SDS011;40485;53.172;5.416;2022-07-29T02:44:42;3.63;;;1.17;;
54589;SDS011;40485;53.172;5.416;2022-07-29T02:49:53;1.75;;;0.65;;
54589;SDS011;40485;53.172;5.416;2022-07-29T02:52:31;2.17;;;0.88;;
54589;SDS011;40485;53.172;5.416;2022-07-29T02:57:43;2.45;;;0.80;;
54589;SDS011;40485;53.172;5.416;2022-07-29T03:00:12;2.85;;;0.93;;
54589;SDS011;40485;53.172;5.416;2022-07-29T03:02:40;3.85;;;0.70;;
54589;SDS011;40485;53.172;5.416;2022-07-29T03:05:11;1.63;;;0.52;;
54589;SDS011;40485;53.172;5.416;2022-07-29T03:07:40;3.15;;;0.90;;
54589;SDS011;40485;53.172;5.416;2022-07-29T03:10:10;2.85;;;0.70;;
54589;SDS011;40485;53.172;5.416;2022-07-29T03:12:37;0.88;;;0.40;;
54589;SDS011;40485;53.172;5.416;2022-07-29T03:15:03;0.95;;;0.50;;
54589;SDS011;40485;53.172;5.416;2022-07-29T03:17:30;1.70;;;0.65;;
54589;SDS011;40485;53.172;5.416;2022-07-29T03:19:56;1.33;;;0.57;;
54589;SDS011;40485;53.172;5.416;2022-07-29T03:22:23;3.25;;;1.10;;
54589;SDS011;40485;53.172;5.416;2022-07-29T03:24:49;1.65;;;0.70;;
54589;SDS011;40485;53.172;5.416;2022-07-29T03:27:15;2.10;;;0.63;;
54589;SDS011;40485;53.172;5.416;2022-07-29T03:29:41;0.70;;;0.47;;
54589;SDS011;40485;53.172;5.416;2022-07-29T03:32:06;1.88;;;0.70;;
54589;SDS011;40485;53.172;5.416;2022-07-29T03:34:32;3.50;;;0.70;;
54589;SDS011;40485;53.172;5.416;2022-07-29T03:36:58;3.85;;;0.68;;
54589;SDS011;40485;53.172;5.416;2022-07-29T03:39:24;2.58;;;0.60;;
54589;SDS011;40485;53.172;5.416;2022-07-29T03:41:53;1.10;;;0.57;;
54589;SDS011;40485;53.172;5.416;2022-07-29T03:44:21;1.77;;;0.60;;
54589;SDS011;40485;53.172;5.416;2022-07-29T03:46:48;1.00;;;0.50;;
54589;SDS011;40485;53.172;5.416;2022-07-29T03:49:16;1.50;;;0.45;;
54589;SDS011;40485;53.172;5.416;2022-07-29T03:51:44;1.83;;;0.60;;
54589;SDS011;40485;53.172;5.416;2022-07-29T03:54:10;1.58;;;0.60;;
54589;SDS011;40485;53.172;5.416;2022-07-29T03:56:38;1.17;;;0.60;;
54589;SDS011;40485;53.172;5.416;2022-07-29T03:59:05;0.40;;;0.35;;
54589;SDS011;40485;53.172;5.416;2022-07-29T04:01:32;2.58;;;0.80;;
54589;SDS011;40485;53.172;5.416;2022-07-29T04:04:00;1.58;;;0.80;;
54589;SDS011;40485;53.172;5.416;2022-07-29T04:06:27;1.65;;;0.60;;
54589;SDS011;40485;53.172;5.416;2022-07-29T04:08:52;0.85;;;0.60;;
54589;SDS011;40485;53.172;5.416;2022-07-29T04:11:18;1.00;;;0.70;;
54589;SDS011;40485;53.172;5.416;2022-07-29T04:13:44;2.45;;;0.65;;
54589;SDS011;40485;53.172;5.416;2022-07-29T04:16:09;1.65;;;0.70;;
54589;SDS011;40485;53.172;5.416;2022-07-29T04:18:35;2.88;;;0.55;;
54589;SDS011;40485;53.172;5.416;2022-07-29T04:21:00;3.67;;;0.85;;
54589;SDS011;40485;53.172;5.416;2022-07-29T04:23:27;3.95;;;0.80;;
54589;SDS011;40485;53.172;5.416;2022-07-29T04:25:57;5.57;;;1.20;;
54589;SDS011;40485;53.172;5.416;2022-07-29T04:28:22;1.38;;;0.73;;
54589;SDS011;40485;53.172;5.416;2022-07-29T04:30:48;3.03;;;0.50;;
54589;SDS011;40485;53.172;5.416;2022-07-29T04:33:14;6.43;;;0.95;;
54589;SDS011;40485;53.172;5.416;2022-07-29T04:35:39;2.50;;;0.70;;
54589;SDS011;40485;53.172;5.416;2022-07-29T04:38:05;2.72;;;0.80;;
54589;SDS011;40485;53.172;5.416;2022-07-29T04:40:31;3.08;;;1.10;;
54589;SDS011;40485;53.172;5.416;2022-07-29T04:42:58;2.72;;;1.00;;
54589;SDS011;40485;53.172;5.416;2022-07-29T04:45:27;2.65;;;0.73;;
54589;SDS011;40485;53.172;5.416;2022-07-29T04:47:53;1.27;;;0.65;;
54589;SDS011;40485;53.172;5.416;2022-07-29T04:50:20;2.83;;;0.82;;
54589;SDS011;40485;53.172;5.416;2022-07-29T04:52:45;1.33;;;0.60;;
54589;SDS011;40485;53.172;5.416;2022-07-29T04:55:11;4.50;;;0.90;;
54589;SDS011;40485;53.172;5.416;2022-07-29T04:57:37;1.10;;;0.40;;
54589;SDS011;40485;53.172;5.416;2022-07-29T05:00:03;4.07;;;0.93;;
54589;SDS011;40485;53.172;5.416;2022-07-29T05:02:30;4.78;;;1.05;;
54589;SDS011;40485;53.172;5.416;2022-07-29T05:04:55;3.10;;;0.80;;
54589;SDS011;40485;53.172;5.416;2022-07-29T05:07:21;4.18;;;0.90;;
54589;SDS011;40485;53.172;5.416;2022-07-29T05:09:47;2.30;;;0.70;;
54589;SDS011;40485;53.172;5.416;2022-07-29T05:12:12;1.65;;;0.63;;
54589;SDS011;40485;53.172;5.416;2022-07-29T05:14:38;4.00;;;1.17;;
54589;SDS011;40485;53.172;5.416;2022-07-29T05:17:03;2.30;;;0.73;;
54589;SDS011;40485;53.172;5.416;2022-07-29T05:19:29;2.03;;;0.70;;
54589;SDS011;40485;53.172;5.416;2022-07-29T05:21:55;1.45;;;0.63;;
54589;SDS011;40485;53.172;5.416;2022-07-29T05:24:21;2.15;;;0.60;;
54589;SDS011;40485;53.172;5.416;2022-07-29T05:26:47;2.15;;;0.80;;
54589;SDS011;40485;53.172;5.416;2022-07-29T05:29:13;2.65;;;0.60;;
54589;SDS011;40485;53.172;5.416;2022-07-29T05:31:38;1.48;;;0.40;;
54589;SDS011;40485;53.172;5.416;2022-07-29T05:34:04;1.38;;;0.75;;
54589;SDS011;40485;53.172;5.416;2022-07-29T05:36:29;3.60;;;0.82;;
54589;SDS011;40485;53.172;5.416;2022-07-29T05:38:55;1.25;;;0.40;;
54589;SDS011;40485;53.172;5.416;2022-07-29T05:41:20;2.45;;;0.65;;
54589;SDS011;40485;53.172;5.416;2022-07-29T05:43:46;1.73;;;0.50;;
54589;SDS011;40485;53.172;5.416;2022-07-29T05:46:12;3.58;;;0.88;;
54589;SDS011;40485;53.172;5.416;2022-07-29T05:48:39;2.30;;;0.77;;
54589;SDS011;40485;53.172;5.416;2022-07-29T05:51:04;1.63;;;0.60;;
54589;SDS011;40485;53.172;5.416;2022-07-29T05:53:30;1.98;;;0.60;;
54589;SDS011;40485;53.172;5.416;2022-07-29T05:55:55;3.10;;;0.70;;
54589;SDS011;40485;53.172;5.416;2022-07-29T05:58:21;5.13;;;0.90;;
54589;SDS011;40485;53.172;5.416;2022-07-29T06:00:47;2.15;;;0.65;;
54589;SDS011;40485;53.172;5.416;2022-07-29T06:03:12;5.22;;;0.63;;
54589;SDS011;40485;53.172;5.416;2022-07-29T06:05:38;2.22;;;0.70;;
54589;SDS011;40485;53.172;5.416;2022-07-29T06:08:04;2.40;;;0.90;;
54589;SDS011;40485;53.172;5.416;2022-07-29T06:10:36;3.63;;;0.52;;
54589;SDS011;40485;53.172;5.416;2022-07-29T06:13:02;4.45;;;0.65;;
54589;SDS011;40485;53.172;5.416;2022-07-29T06:15:28;2.30;;;0.68;;
54589;SDS011;40485;53.172;5.416;2022-07-29T06:17:53;2.63;;;0.73;;
54589;SDS011;40485;53.172;5.416;2022-07-29T06:20:19;3.03;;;1.08;;
54589;SDS011;40485;53.172;5.416;2022-07-29T06:22:45;1.80;;;0.70;;
54589;SDS011;40485;53.172;5.416;2022-07-29T06:25:10;1.48;;;0.77;;
54589;SDS011;40485;53.172;5.416;2022-07-29T06:27:36;3.10;;;0.80;;
54589;SDS011;40485;53.172;5.416;2022-07-29T06:30:02;2.63;;;0.50;;
54589;SDS011;40485;53.172;5.416;2022-07-29T06:32:31;1.85;;;0.60;;
54589;SDS011;40485;53.172;5.416;2022-07-29T06:34:57;3.85;;;0.90;;
54589;SDS011;40485;53.172;5.416;2022-07-29T06:37:23;1.15;;;0.60;;
54589;SDS011;40485;53.172;5.416;2022-07-29T06:39:48;3.72;;;0.85;;
54589;SDS011;40485;53.172;5.416;2022-07-29T06:42:34;1.85;;;0.65;;
54589;SDS011;40485;53.172;5.416;2022-07-29T06:44:59;2.72;;;0.77;;
54589;SDS011;40485;53.172;5.416;2022-07-29T06:47:25;2.75;;;0.95;;
54589;SDS011;40485;53.172;5.416;2022-07-29T06:49:50;1.55;;;0.50;;
54589;SDS011;40485;53.172;5.416;2022-07-29T06:52:16;1.42;;;0.60;;
54589;SDS011;40485;53.172;5.416;2022-07-29T06:54:42;2.42;;;0.73;;
54589;SDS011;40485;53.172;5.416;2022-07-29T06:57:13;3.40;;;0.75;;
54589;SDS011;40485;53.172;5.416;2022-07-29T06:59:38;1.08;;;0.57;;
54589;SDS011;40485;53.172;5.416;2022-07-29T07:02:04;1.02;;;0.52;;
54589;SDS011;40485;53.172;5.416;2022-07-29T07:04:29;3.22;;;0.70;;
54589;SDS011;40485;53.172;5.416;2022-07-29T07:06:55;3.15;;;0.85;;
54589;SDS011;40485;53.172;5.416;2022-07-29T07:09:21;1.40;;;0.60;;
54589;SDS011;40485;53.172;5.416;2022-07-29T07:11:46;1.90;;;0.70;;
54589;SDS011;40485;53.172;5.416;2022-07-29T07:14:12;3.00;;;0.88;;
54589;SDS011;40485;53.172;5.416;2022-07-29T07:16:37;3.63;;;0.80;;
54589;SDS011;40485;53.172;5.416;2022-07-29T07:19:03;3.35;;;0.90;;
54589;SDS011;40485;53.172;5.416;2022-07-29T07:21:29;4.93;;;1.10;;
54589;SDS011;40485;53.172;5.416;2022-07-29T07:23:55;1.13;;;0.57;;
54589;SDS011;40485;53.172;5.416;2022-07-29T07:26:20;3.50;;;0.68;;
54589;SDS011;40485;53.172;5.416;2022-07-29T07:28:46;1.92;;;0.70;;
54589;SDS011;40485;53.172;5.416;2022-07-29T07:31:11;1.27;;;0.70;;
54589;SDS011;40485;53.172;5.416;2022-07-29T07:33:37;2.60;;;0.65;;
54589;SDS011;40485;53.172;5.416;2022-07-29T07:36:03;1.80;;;0.77;;
54589;SDS011;40485;53.172;5.416;2022-07-29T07:38:28;1.75;;;0.70;;
54589;SDS011;40485;53.172;5.416;2022-07-29T07:40:54;1.67;;;0.80;;
54589;SDS011;40485;53.172;5.416;2022-07-29T07:43:20;1.50;;;0.60;;
54589;SDS011;40485;53.172;5.416;2022-07-29T07:45:46;2.90;;;0.77;;
54589;SDS011;40485;53.172;5.416;2022-07-29T07:48:12;3.30;;;0.73;;
54589;SDS011;40485;53.172;5.416;2022-07-29T07:50:37;3.00;;;0.98;;
54589;SDS011;40485;53.172;5.416;2022-07-29T07:53:03;1.77;;;0.70;;
54589;SDS011;40485;53.172;5.416;2022-07-29T07:55:29;3.58;;;1.15;;
54589;SDS011;40485;53.172;5.416;2022-07-29T07:57:55;4.55;;;0.85;;
54589;SDS011;40485;53.172;5.416;2022-07-29T08:00:21;2.22;;;0.90;;
54589;SDS011;40485;53.172;5.416;2022-07-29T08:02:47;2.40;;;0.70;;
54589;SDS011;40485;53.172;5.416;2022-07-29T08:05:12;2.97;;;0.70;;
54589;SDS011;40485;53.172;5.416;2022-07-29T08:07:42;2.35;;;0.80;;
54589;SDS011;40485;53.172;5.416;2022-07-29T08:10:09;2.15;;;0.70;;
54589;SDS011;40485;53.172;5.416;2022-07-29T08:12:34;1.88;;;0.73;;
54589;SDS011;40485;53.172;5.416;2022-07-29T08:15:00;2.65;;;1.10;;
54589;SDS011;40485;53.172;5.416;2022-07-29T08:17:26;3.70;;;0.75;;
54589;SDS011;40485;53.172;5.416;2022-07-29T08:19:51;2.13;;;1.05;;
54589;SDS011;40485;53.172;5.416;2022-07-29T08:22:17;2.05;;;0.57;;
54589;SDS011;40485;53.172;5.416;2022-07-29T08:24:43;10.02;;;1.05;;
54589;SDS011;40485;53.172;5.416;2022-07-29T08:27:11;3.35;;;0.73;;
54589;SDS011;40485;53.172;5.416;2022-07-29T08:29:37;4.20;;;1.00;;
54589;SDS011;40485;53.172;5.416;2022-07-29T08:32:04;3.67;;;0.70;;
54589;SDS011;40485;53.172;5.416;2022-07-29T08:34:30;1.67;;;0.70;;
54589;SDS011;40485;53.172;5.416;2022-07-29T08:36:55;1.50;;;0.88;;
54589;SDS011;40485;53.172;5.416;2022-07-29T08:39:22;2.38;;;1.00;;
54589;SDS011;40485;53.172;5.416;2022-07-29T08:41:48;3.47;;;1.00;;
54589;SDS011;40485;53.172;5.416;2022-07-29T08:44:16;2.60;;;0.75;;
54589;SDS011;40485;53.172;5.416;2022-07-29T08:46:46;5.60;;;1.05;;
54589;SDS011;40485;53.172;5.416;2022-07-29T08:49:12;4.10;;;0.60;;
54589;SDS011;40485;53.172;5.416;2022-07-29T08:51:41;10.98;;;1.00;;
54589;SDS011;40485;53.172;5.416;2022-07-29T08:54:07;2.95;;;0.50;;
54589;SDS011;40485;53.172;5.416;2022-07-29T08:56:34;2.50;;;0.90;;
54589;SDS011;40485;53.172;5.416;2022-07-29T08:59:02;2.92;;;0.80;;
54589;SDS011;40485;53.172;5.416;2022-07-29T09:01:30;2.28;;;0.98;;
54589;SDS011;40485;53.172;5.416;2022-07-29T09:03:58;3.42;;;0.70;;
54589;SDS011;40485;53.172;5.416;2022-07-29T09:06:27;2.10;;;0.90;;
54589;SDS011;40485;53.172;5.416;2022-07-29T09:08:58;3.45;;;0.88;;
54589;SDS011;40485;53.172;5.416;2022-07-29T09:11:25;2.15;;;1.33;;
54589;SDS011;40485;53.172;5.416;2022-07-29T09:13:50;2.92;;;0.90;;
54589;SDS011;40485;53.172;5.416;2022-07-29T09:16:16;2.53;;;0.80;;
54589;SDS011;40485;53.172;5.416;2022-07-29T09:18:42;3.53;;;0.90;;
54589;SDS011;40485;53.172;5.416;2022-07-29T09:21:10;2.33;;;0.90;;
54589;SDS011;40485;53.172;5.416;2022-07-29T09:24:06;5.55;;;1.00;;
54589;SDS011;40485;53.172;5.416;2022-07-29T09:26:33;2.60;;;0.70;;
54589;SDS011;40485;53.172;5.416;2022-07-29T09:29:01;4.25;;;0.93;;
54589;SDS011;40485;53.172;5.416;2022-07-29T09:31:38;2.33;;;0.63;;
54589;SDS011;40485;53.172;5.416;2022-07-29T09:34:05;1.55;;;0.80;;
54589;SDS011;40485;53.172;5.416;2022-07-29T09:36:43;4.32;;;0.80;;
54589;SDS011;40485;53.172;5.416;2022-07-29T09:39:11;2.53;;;0.93;;
54589;SDS011;40485;53.172;5.416;2022-07-29T09:44:11;3.70;;;0.82;;
54589;SDS011;40485;53.172;5.416;2022-07-29T09:46:36;4.05;;;1.05;;
54589;SDS011;40485;53.172;5.416;2022-07-29T09:49:09;1.92;;;0.68;;
54589;SDS011;40485;53.172;5.416;2022-07-29T09:51:37;1.70;;;0.90;;
54589;SDS011;40485;53.172;5.416;2022-07-29T09:54:21;4.65;;;0.95;;
54589;SDS011;40485;53.172;5.416;2022-07-29T09:56:51;2.15;;;0.68;;
54589;SDS011;40485;53.172;5.416;2022-07-29T09:59:18;5.93;;;1.13;;
54589;SDS011;40485;53.172;5.416;2022-07-29T10:01:45;3.80;;;1.13;;
54589;SDS011;40485;53.172;5.416;2022-07-29T10:04:11;3.78;;;1.25;;
54589;SDS011;40485;53.172;5.416;2022-07-29T10:06:54;2.05;;;0.90;;
54589;SDS011;40485;53.172;5.416;2022-07-29T10:09:24;5.57;;;1.40;;
54589;SDS011;40485;53.172;5.416;2022-07-29T10:12:02;6.15;;;0.90;;
54589;SDS011;40485;53.172;5.416;2022-07-29T10:14:30;5.72;;;1.20;;
54589;SDS011;40485;53.172;5.416;2022-07-29T10:16:58;8.90;;;1.40;;
54589;SDS011;40485;53.172;5.416;2022-07-29T10:19:25;4.80;;;0.80;;
54589;SDS011;40485;53.172;5.416;2022-07-29T10:21:51;4.93;;;1.42;;
54589;SDS011;40485;53.172;5.416;2022-07-29T10:24:17;3.53;;;1.15;;
54589;SDS011;40485;53.172;5.416;2022-07-29T10:26:43;2.42;;;1.08;;
54589;SDS011;40485;53.172;5.416;2022-07-29T10:29:11;4.43;;;1.52;;
54589;SDS011;40485;53.172;5.416;2022-07-29T10:31:41;10.45;;;1.40;;
54589;SDS011;40485;53.172;5.416;2022-07-29T10:42:19;7.05;;;1.50;;
54589;SDS011;40485;53.172;5.416;2022-07-29T10:44:49;9.00;;;2.17;;
54589;SDS011;40485;53.172;5.416;2022-07-29T10:47:33;10.48;;;2.00;;
54589;SDS011;40485;53.172;5.416;2022-07-29T10:49:59;4.90;;;1.20;;
54589;SDS011;40485;53.172;5.416;2022-07-29T10:53:00;9.52;;;2.30;;
54589;SDS011;40485;53.172;5.416;2022-07-29T10:55:31;5.63;;;1.52;;
54589;SDS011;40485;53.172;5.416;2022-07-29T10:58:16;6.03;;;1.35;;
54589;SDS011;40485;53.172;5.416;2022-07-29T11:00:44;4.00;;;1.35;;
54589;SDS011;40485;53.172;5.416;2022-07-29T11:06:12;7.85;;;1.27;;
54589;SDS011;40485;53.172;5.416;2022-07-29T11:08:39;8.60;;;2.30;;
54589;SDS011;40485;53.172;5.416;2022-07-29T11:13:49;7.68;;;2.17;;
54589;SDS011;40485;53.172;5.416;2022-07-29T11:16:17;3.33;;;1.15;;
54589;SDS011;40485;53.172;5.416;2022-07-29T11:21:42;8.15;;;1.90;;
54589;SDS011;40485;53.172;5.416;2022-07-29T11:24:19;6.87;;;2.07;;
54589;SDS011;40485;53.172;5.416;2022-07-29T11:29:50;9.07;;;1.60;;
54589;SDS011;40485;53.172;5.416;2022-07-29T11:32:17;4.97;;;1.52;;
54589;SDS011;40485;53.172;5.416;2022-07-29T11:34:47;8.95;;;4.30;;
54589;SDS011;40485;53.172;5.416;2022-07-29T11:37:13;3.38;;;1.58;;
54589;SDS011;40485;53.172;5.416;2022-07-29T11:47:31;7.43;;;1.75;;
54589;SDS011;40485;53.172;5.416;2022-07-29T11:50:02;5.13;;;1.45;;
54589;SDS011;40485;53.172;5.416;2022-07-29T11:52:37;6.47;;;2.05;;
54589;SDS011;40485;53.172;5.416;2022-07-29T11:55:15;7.40;;;2.20;;
54589;SDS011;40485;53.172;5.416;2022-07-29T11:57:49;7.10;;;1.60;;
54589;SDS011;40485;53.172;5.416;2022-07-29T12:02:50;3.40;;;1.30;;
54589;SDS011;40485;53.172;5.416;2022-07-29T12:05:17;5.00;;;1.33;;
54589;SDS011;40485;53.172;5.416;2022-07-29T12:07:43;8.65;;;2.15;;
54589;SDS011;40485;53.172;5.416;2022-07-29T12:10:09;7.00;;;2.40;;
54589;SDS011;40485;53.172;5.416;2022-07-29T12:12:35;7.00;;;1.88;;
54589;SDS011;40485;53.172;5.416;2022-07-29T12:15:11;3.95;;;1.63;;
54589;SDS011;40485;53.172;5.416;2022-07-29T12:17:42;5.28;;;1.80;;
54589;SDS011;40485;53.172;5.416;2022-07-29T12:20:08;15.40;;;2.80;;
54589;SDS011;40485;53.172;5.416;2022-07-29T12:22:35;5.95;;;1.55;;
54589;SDS011;40485;53.172;5.416;2022-07-29T12:27:29;4.18;;;1.30;;
54589;SDS011;40485;53.172;5.416;2022-07-29T12:29:59;11.02;;;2.50;;
54589;SDS011;40485;53.172;5.416;2022-07-29T12:32:31;2.65;;;1.50;;
54589;SDS011;40485;53.172;5.416;2022-07-29T12:34:58;5.88;;;1.45;;
54589;SDS011;40485;53.172;5.416;2022-07-29T12:37:26;5.45;;;1.48;;
54589;SDS011;40485;53.172;5.416;2022-07-29T12:39:52;10.88;;;2.80;;
54589;SDS011;40485;53.172;5.416;2022-07-29T12:42:18;5.25;;;1.40;;
54589;SDS011;40485;53.172;5.416;2022-07-29T12:44:44;4.63;;;1.90;;
54589;SDS011;40485;53.172;5.416;2022-07-29T12:47:14;6.18;;;1.52;;
54589;SDS011;40485;53.172;5.416;2022-07-29T12:49:40;3.15;;;1.67;;
54589;SDS011;40485;53.172;5.416;2022-07-29T12:54:51;5.32;;;1.45;;
54589;SDS011;40485;53.172;5.416;2022-07-29T12:57:17;7.30;;;2.83;;
54589;SDS011;40485;53.172;5.416;2022-07-29T12:59:43;3.65;;;1.23;;
54589;SDS011;40485;53.172;5.416;2022-07-29T13:02:19;10.57;;;2.08;;
54589;SDS011;40485;53.172;5.416;2022-07-29T13:04:55;6.38;;;2.22;;
54589;SDS011;40485;53.172;5.416;2022-07-29T13:07:26;10.68;;;2.90;;
54589;SDS011;40485;53.172;5.416;2022-07-29T13:09:54;3.92;;;1.40;;
54589;SDS011;40485;53.172;5.416;2022-07-29T13:12:34;7.57;;;1.98;;
54589;SDS011;40485;53.172;5.416;2022-07-29T13:15:00;4.72;;;1.45;;
54589;SDS011;40485;53.172;5.416;2022-07-29T13:17:44;3.15;;;1.10;;
54589;SDS011;40485;53.172;5.416;2022-07-29T13:20:10;5.20;;;1.35;;
54589;SDS011;40485;53.172;5.416;2022-07-29T13:22:41;4.90;;;1.52;;
54589;SDS011;40485;53.172;5.416;2022-07-29T13:25:07;3.40;;;1.30;;
54589;SDS011;40485;53.172;5.416;2022-07-29T13:27:35;4.47;;;1.73;;
54589;SDS011;40485;53.172;5.416;2022-07-29T13:30:03;4.32;;;1.60;;
54589;SDS011;40485;53.172;5.416;2022-07-29T13:32:31;6.40;;;2.13;;
54589;SDS011;40485;53.172;5.416;2022-07-29T13:34:59;8.85;;;1.65;;
54589;SDS011;40485;53.172;5.416;2022-07-29T13:37:27;6.13;;;1.95;;
54589;SDS011;40485;53.172;5.416;2022-07-29T13:39:54;2.28;;;1.20;;
54589;SDS011;40485;53.172;5.416;2022-07-29T13:42:21;3.80;;;1.33;;
54589;SDS011;40485;53.172;5.416;2022-07-29T13:44:47;6.45;;;1.80;;
54589;SDS011;40485;53.172;5.416;2022-07-29T13:47:16;3.50;;;1.10;;
54589;SDS011;40485;53.172;5.416;2022-07-29T13:49:46;8.00;;;1.60;;
54589;SDS011;40485;53.172;5.416;2022-07-29T13:52:12;3.67;;;1.20;;
54589;SDS011;40485;53.172;5.416;2022-07-29T13:54:38;7.68;;;1.40;;
54589;SDS011;40485;53.172;5.416;2022-07-29T13:57:04;6.28;;;1.95;;
54589;SDS011;40485;53.172;5.416;2022-07-29T13:59:29;2.75;;;1.20;;
54589;SDS011;40485;53.172;5.416;2022-07-29T14:01:55;3.85;;;1.23;;
54589;SDS011;40485;53.172;5.416;2022-07-29T14:04:21;3.47;;;1.33;;
54589;SDS011;40485;53.172;5.416;2022-07-29T14:06:48;7.53;;;1.45;;
54589;SDS011;40485;53.172;5.416;2022-07-29T14:09:14;4.47;;;1.58;;
54589;SDS011;40485;53.172;5.416;2022-07-29T14:11:40;4.20;;;1.33;;
54589;SDS011;40485;53.172;5.416;2022-07-29T14:14:05;8.07;;;2.28;;
54589;SDS011;40485;53.172;5.416;2022-07-29T14:16:32;6.50;;;1.65;;
54589;SDS011;40485;53.172;5.416;2022-07-29T14:18:58;4.40;;;1.17;;
54589;SDS011;40485;53.172;5.416;2022-07-29T14:21:23;6.15;;;1.48;;
54589;SDS011;40485;53.172;5.416;2022-07-29T14:23:49;5.47;;;1.90;;
54589;SDS011;40485;53.172;5.416;2022-07-29T14:26:15;7.47;;;1.58;;
54589;SDS011;40485;53.172;5.416;2022-07-29T14:28:41;6.10;;;1.50;;
54589;SDS011;40485;53.172;5.416;2022-07-29T14:31:07;8.18;;;1.95;;
54589;SDS011;40485;53.172;5.416;2022-07-29T14:33:33;6.25;;;1.98;;
54589;SDS011;40485;53.172;5.416;2022-07-29T14:35:58;6.63;;;2.20;;
54589;SDS011;40485;53.172;5.416;2022-07-29T14:38:24;3.83;;;1.50;;
54589;SDS011;40485;53.172;5.416;2022-07-29T14:40:50;4.53;;;1.50;;
54589;SDS011;40485;53.172;5.416;2022-07-29T14:43:16;4.53;;;1.60;;
54589;SDS011;40485;53.172;5.416;2022-07-29T14:45:41;4.32;;;1.55;;
54589;SDS011;40485;53.172;5.416;2022-07-29T14:48:07;6.97;;;1.48;;
54589;SDS011;40485;53.172;5.416;2022-07-29T14:50:33;6.72;;;1.95;;
54589;SDS011;40485;53.172;5.416;2022-07-29T14:52:59;5.57;;;1.90;;
54589;SDS011;40485;53.172;5.416;2022-07-29T14:55:25;4.50;;;1.33;;
54589;SDS011;40485;53.172;5.416;2022-07-29T14:57:52;8.20;;;1.90;;
54589;SDS011;40485;53.172;5.416;2022-07-29T15:00:18;3.47;;;1.50;;
54589;SDS011;40485;53.172;5.416;2022-07-29T15:02:45;8.05;;;1.90;;
54589;SDS011;40485;53.172;5.416;2022-07-29T15:05:11;9.25;;;1.85;;
54589;SDS011;40485;53.172;5.416;2022-07-29T15:07:37;5.03;;;1.73;;
54589;SDS011;40485;53.172;5.416;2022-07-29T15:10:03;6.57;;;1.52;;
54589;SDS011;40485;53.172;5.416;2022-07-29T15:12:29;5.32;;;1.60;;
54589;SDS011;40485;53.172;5.416;2022-07-29T15:14:55;3.40;;;1.50;;
54589;SDS011;40485;53.172;5.416;2022-07-29T15:17:21;5.97;;;1.50;;
54589;SDS011;40485;53.172;5.416;2022-07-29T15:19:47;3.75;;;1.42;;
54589;SDS011;40485;53.172;5.416;2022-07-29T15:22:12;7.22;;;1.70;;
54589;SDS011;40485;53.172;5.416;2022-07-29T15:24:38;5.70;;;1.63;;
54589;SDS011;40485;53.172;5.416;2022-07-29T15:27:03;9.30;;;2.40;;
54589;SDS011;40485;53.172;5.416;2022-07-29T15:29:29;3.30;;;1.45;;
54589;SDS011;40485;53.172;5.416;2022-07-29T15:31:55;7.32;;;1.85;;
54589;SDS011;40485;53.172;5.416;2022-07-29T15:34:21;4.88;;;1.80;;
54589;SDS011;40485;53.172;5.416;2022-07-29T15:36:48;6.00;;;2.03;;
54589;SDS011;40485;53.172;5.416;2022-07-29T15:39:15;5.43;;;1.98;;
54589;SDS011;40485;53.172;5.416;2022-07-29T15:41:41;5.32;;;2.00;;
54589;SDS011;40485;53.172;5.416;2022-07-29T15:44:10;5.65;;;1.63;;
54589;SDS011;40485;53.172;5.416;2022-07-29T15:46:35;3.88;;;1.60;;
54589;SDS011;40485;53.172;5.416;2022-07-29T15:49:19;7.47;;;2.00;;